Time;durP1;ratioP1;P1;durP2;ratioP2;P2;SDS_P1;SDS_P2;PMS_P1;PMS_P2;Temp;Humidity;BMP_temperature;BMP_pressure;BME280_temperature;BME280_humidity;BME280_pressure;Samples;Min_cycle;Max_cycle;Signal;HPM_P1;HPM_P2
2023/05/13 00:00:43;;;;;;;3.00;1.90;;;;;;;;;;5026100;28;20029;-79
2023/05/13 00:03:09;;;;;;;2.15;1.40;;;;;;;;;;5020995;28;20513;-79
2023/05/13 00:05:35;;;;;;;3.03;2.17;;;;;;;;;;5022263;28;20032;-80
2023/05/13 00:08:05;;;;;;;3.83;2.15;;;;;;;;;;5004080;28;20030;-80
2023/05/13 00:10:32;;;;;;;24.35;8.48;;;;;;;;;;5032415;28;20036;-80
2023/05/13 00:12:58;;;;;;;42.15;14.93;;;;;;;;;;5019623;28;20030;-79
2023/05/13 00:15:24;;;;;;;37.33;13.50;;;;;;;;;;5023948;28;20034;-80
2023/05/13 00:17:50;;;;;;;13.55;5.57;;;;;;;;;;5019706;28;20030;-79
2023/05/13 00:20:16;;;;;;;7.05;3.70;;;;;;;;;;5022255;28;20088;-79
2023/05/13 00:22:42;;;;;;;12.73;3.33;;;;;;;;;;5021296;28;20396;-79
2023/05/13 00:25:08;;;;;;;4.90;2.40;;;;;;;;;;5024460;28;20096;-79
2023/05/13 00:27:34;;;;;;;2.85;1.45;;;;;;;;;;5017686;28;20076;-80
2023/05/13 00:30:00;;;;;;;2.80;1.67;;;;;;;;;;5018664;28;20045;-80
2023/05/13 00:32:26;;;;;;;3.08;1.25;;;;;;;;;;5021896;28;20125;-79
2023/05/13 00:34:52;;;;;;;4.22;2.00;;;;;;;;;;5025779;28;20433;-79
2023/05/13 00:37:18;;;;;;;1.52;0.95;;;;;;;;;;5019249;28;20486;-80
2023/05/13 00:39:44;;;;;;;3.65;1.40;;;;;;;;;;5018422;28;20026;-79
2023/05/13 00:42:11;;;;;;;2.95;1.40;;;;;;;;;;5022980;28;20052;-79
2023/05/13 00:44:37;;;;;;;4.28;1.95;;;;;;;;;;5017907;28;20048;-79
2023/05/13 00:47:05;;;;;;;2.95;1.63;;;;;;;;;;5023043;28;20037;-80
2023/05/13 00:49:32;;;;;;;3.28;1.98;;;;;;;;;;5024320;28;20698;-80
2023/05/13 00:51:58;;;;;;;3.08;1.65;;;;;;;;;;5024737;28;20036;-80
2023/05/13 00:54:24;;;;;;;1.45;0.93;;;;;;;;;;5019073;28;20030;-79
2023/05/13 00:56:53;;;;;;;1.45;1.00;;;;;;;;;;5027018;28;20040;-80
2023/05/13 00:59:20;;;;;;;2.38;1.30;;;;;;;;;;5024261;28;20017;-80
2023/05/13 01:02:00;;;;;;;3.42;1.33;;;;;;;;;;5024204;28;20041;-80
2023/05/13 01:04:35;;;;;;;2.95;1.23;;;;;;;;;;5017390;28;20033;-79
2023/05/13 01:07:08;;;;;;;4.13;2.08;;;;;;;;;;5024048;28;20123;-80
2023/05/13 01:09:55;;;;;;;1.95;1.35;;;;;;;;;;5019708;28;20048;-80
2023/05/13 01:12:26;;;;;;;4.15;2.13;;;;;;;;;;5021930;28;20037;-80
2023/05/13 01:14:54;;;;;;;2.80;1.35;;;;;;;;;;5025148;28;20029;-81
2023/05/13 01:17:24;;;;;;;2.80;1.40;;;;;;;;;;5017769;28;20068;-80
2023/05/13 01:20:02;;;;;;;1.95;1.40;;;;;;;;;;5019553;28;20030;-80
2023/05/13 01:22:28;;;;;;;1.63;1.10;;;;;;;;;;5016260;28;20482;-81
2023/05/13 01:24:54;;;;;;;1.40;0.75;;;;;;;;;;5024685;28;20030;-79
2023/05/13 01:27:20;;;;;;;1.10;0.82;;;;;;;;;;5030840;28;20386;-79
2023/05/13 01:29:48;;;;;;;1.75;1.05;;;;;;;;;;5032854;28;20052;-80
2023/05/13 01:32:15;;;;;;;1.75;1.00;;;;;;;;;;5045411;28;20474;-80
2023/05/13 01:34:42;;;;;;;2.05;1.38;;;;;;;;;;5018007;28;20068;-79
2023/05/13 01:37:08;;;;;;;2.22;1.20;;;;;;;;;;5021713;28;20045;-80
2023/05/13 01:39:36;;;;;;;1.60;0.98;;;;;;;;;;5025653;28;20529;-80
2023/05/13 01:42:02;;;;;;;2.47;1.13;;;;;;;;;;5027869;28;20398;-80
2023/05/13 01:44:28;;;;;;;1.65;1.08;;;;;;;;;;5035246;28;20037;-81
2023/05/13 01:46:54;;;;;;;2.60;1.10;;;;;;;;;;5029030;28;20113;-79
2023/05/13 01:49:20;;;;;;;2.15;0.85;;;;;;;;;;5026939;28;20596;-80
2023/05/13 01:51:46;;;;;;;2.00;1.05;;;;;;;;;;5035177;28;22055;-80
2023/05/13 01:54:12;;;;;;;2.58;1.27;;;;;;;;;;5026618;28;20038;-80
2023/05/13 01:56:38;;;;;;;2.58;1.08;;;;;;;;;;5036103;28;20037;-80
2023/05/13 01:59:05;;;;;;;2.47;1.38;;;;;;;;;;5026218;28;20709;-80
2023/05/13 02:01:31;;;;;;;2.58;1.60;;;;;;;;;;5026503;28;20033;-80
2023/05/13 02:03:58;;;;;;;2.40;1.90;;;;;;;;;;5031121;28;20033;-79
2023/05/13 02:06:24;;;;;;;2.60;1.50;;;;;;;;;;5020803;28;20028;-79
2023/05/13 02:08:50;;;;;;;3.22;1.67;;;;;;;;;;5027980;28;20033;-79
2023/05/13 02:11:16;;;;;;;1.95;1.45;;;6.40;99.90;;;;;;5025698;28;20044;-79
2023/05/13 02:13:42;;;;;;;2.20;1.13;;;;;;;;;;5030169;28;20053;-79
2023/05/13 02:16:08;;;;;;;2.60;1.00;;;;;;;;;;5029629;28;20116;-79
2023/05/13 02:18:33;;;;;;;6.68;1.10;;;;;;;;;;5029218;28;20026;-79
2023/05/13 02:20:59;;;;;;;2.63;1.25;;;;;;;;;;5031668;28;20086;-80
2023/05/13 02:23:26;;;;;;;1.85;1.20;;;;;;;;;;5029292;28;20034;-80
2023/05/13 02:25:52;;;;;;;2.78;1.05;;;;;;;;;;5052874;28;20406;-79
2023/05/13 02:28:18;;;;;;;4.68;1.08;;;;;;;;;;5031842;28;20037;-79
2023/05/13 02:30:44;;;;;;;2.15;1.35;;;;;;;;;;5022847;28;20033;-79
2023/05/13 02:33:11;;;;;;;2.80;1.42;;;;;;;;;;5029249;28;20021;-79
2023/05/13 02:35:38;;;;;;;2.22;1.38;;;;;;;;;;5029356;28;20017;-80
2023/05/13 02:38:04;;;;;;;2.40;1.38;;;;;;;;;;5027032;28;20037;-80
2023/05/13 02:40:30;;;;;;;3.28;1.70;;;;;;;;;;5027159;28;20038;-80
2023/05/13 02:42:56;;;;;;;2.33;1.55;;;;;;;;;;5030477;28;20092;-80
2023/05/13 02:45:22;;;;;;;4.93;1.75;;;;;;;;;;5025583;28;20038;-80
2023/05/13 02:47:48;;;;;;;1.95;1.30;;;;;;;;;;5026567;28;20048;-79
2023/05/13 02:50:14;;;;;;;4.18;2.72;;;;;;;;;;5031649;28;20037;-80
2023/05/13 02:52:42;;;;;;;6.68;2.67;;;;;;;;;;5032853;28;20085;-79
2023/05/13 02:55:08;;;;;;;3.58;2.00;;;;;;;;;;5030473;28;20060;-81
2023/05/13 02:57:35;;;;;;;3.67;1.70;;;;;;;;;;5024667;28;20037;-80
2023/05/13 03:00:01;;;;;;;2.90;1.88;;;;;;;;;;5025268;28;20017;-80
2023/05/13 03:02:27;;;;;;;3.13;1.15;;;;;;;;;;5011360;28;20035;-80
2023/05/13 03:04:54;;;;;;;1.90;1.20;;;;;;;;;;5024054;28;20030;-79
2023/05/13 03:07:20;;;;;;;2.70;1.15;;;;;;;;;;5029942;28;20013;-80
2023/05/13 03:09:46;;;;;;;2.33;1.40;;;;;;;;;;5030757;28;20070;-79
2023/05/13 03:12:12;;;;;;;2.00;1.60;;;;;;;;;;5035340;28;20033;-80
2023/05/13 03:14:39;;;;;;;2.63;1.52;;;;;;;;;;5030855;28;20041;-80
2023/05/13 03:17:05;;;;;;;2.83;1.73;;;;;;;;;;5029325;28;20030;-79
2023/05/13 03:19:32;;;;;;;3.22;1.58;;;;;;;;;;5021088;28;20025;-80
2023/05/13 03:21:58;;;;;;;2.03;1.20;;;;;;;;;;5031683;28;20035;-80
2023/05/13 03:24:24;;;;;;;2.83;1.67;;;;;;;;;;5024679;28;20561;-80
2023/05/13 03:26:50;;;;;;;3.78;2.13;;;;;;;;;;5026198;28;20029;-79
2023/05/13 03:29:16;;;;;;;2.65;1.48;;;;;;;;;;5018825;28;20044;-80
2023/05/13 03:31:42;;;;;;;2.17;1.38;;;;;;;;;;5023690;28;20063;-79
2023/05/13 03:34:08;;;;;;;2.28;1.35;;;;;;;;;;5023319;28;20526;-80
2023/05/13 03:36:34;;;;;;;1.80;1.08;;;;;;;;;;5033131;28;20053;-79
2023/05/13 03:39:01;;;;;;;2.83;1.35;;;;;;;;;;5024767;28;20025;-80
2023/05/13 03:41:29;;;;;;;2.65;1.23;;;;;;;;;;5023716;28;20038;-80
2023/05/13 03:43:55;;;;;;;5.70;1.38;;;;;;;;;;5020710;28;20040;-79
2023/05/13 03:46:22;;;;;;;3.35;1.45;;;;;;;;;;5024282;28;20033;-80
2023/05/13 03:48:48;;;;;;;2.58;1.50;;;;;;;;;;5029571;28;20037;-80
2023/05/13 03:51:14;;;;;;;2.00;1.17;;;;;;;;;;5020049;28;20025;-80
2023/05/13 03:53:41;;;;;;;2.03;1.23;;;;;;;;;;5025068;28;20033;-80
2023/05/13 03:56:07;;;;;;;4.30;1.35;;;;;;;;;;5026848;28;20536;-79
2023/05/13 03:58:33;;;;;;;2.10;1.02;;;;;;;;;;5029400;28;20025;-80
2023/05/13 04:00:59;;;;;;;9.98;0.98;;;;;;;;;;5021248;28;20099;-81
2023/05/13 04:03:25;;;;;;;2.70;1.42;;;;;;;;;;5022443;28;20075;-79
2023/05/13 04:05:51;;;;;;;2.28;1.00;;;;;;;;;;5025292;28;20030;-80
2023/05/13 04:08:18;;;;;;;2.45;1.30;;;;;;;;;;5022673;28;20116;-80
2023/05/13 04:10:44;;;;;;;2.45;1.17;;;;;;;;;;5018873;28;20029;-80
2023/05/13 04:13:10;;;;;;;1.48;1.13;;;6.40;99.90;;;;;;5026053;28;20456;-80
2023/05/13 04:15:36;;;;;;;1.88;1.48;;;;;;;;;;5023144;28;20037;-80
2023/05/13 04:18:02;;;;;;;3.03;1.48;;;;;;;;;;5022294;28;20033;-80
2023/05/13 04:20:28;;;;;;;5.30;1.95;;;;;;;;;;5034898;28;20031;-80
2023/05/13 04:22:54;;;;;;;7.15;2.88;;;;;;;;;;5018503;28;20034;-80
2023/05/13 04:25:20;;;;;;;2.63;1.70;;;;;;;;;;5019983;28;20830;-83
2023/05/13 04:27:46;;;;;;;2.05;1.23;;;;;;;;;;5029740;28;20044;-82
2023/05/13 04:30:12;;;;;;;2.65;1.35;;;;;;;;;;5026946;28;20417;-82
2023/05/13 04:32:38;;;;;;;2.10;1.40;;;;;;;;;;5028651;28;20038;-80
2023/05/13 04:35:05;;;;;;;2.13;0.90;;;;;;;;;;5025790;28;20033;-80
2023/05/13 04:37:31;;;;;;;2.25;1.38;;;;;;;;;;5021635;28;21261;-81
2023/05/13 04:39:57;;;;;;;2.15;1.30;;;;;;;;;;5022031;28;20021;-80
2023/05/13 04:42:23;;;;;;;13.05;7.10;;;;;;;;;;5016512;28;20505;-80
2023/05/13 04:44:49;;;;;;;18.75;8.98;;;;;;;;;;5024792;28;20109;-81
2023/05/13 04:47:15;;;;;;;4.68;3.05;;;;;;;;;;5023513;28;20072;-79
2023/05/13 04:49:41;;;;;;;3.38;1.95;;;;;;;;;;5026030;28;20084;-79
2023/05/13 04:52:07;;;;;;;2.75;1.35;;;;;;;;;;5022587;28;20441;-80
2023/05/13 04:54:36;;;;;;;2.15;1.40;;;;;;;;;;5025047;28;20053;-80
2023/05/13 04:57:02;;;;;;;2.47;1.63;;;;;;;;;;5028621;28;20072;-80
2023/05/13 04:59:28;;;;;;;5.78;2.45;;;;;;;;;;5029716;28;20017;-81
2023/05/13 05:01:55;;;;;;;5.20;2.65;;;;;;;;;;5033599;28;20052;-81
2023/05/13 05:04:20;;;;;;;4.47;1.98;;;;;;;;;;5038228;28;20034;-81
2023/05/13 05:06:47;;;;;;;3.85;2.10;;;;;;;;;;5025014;28;20055;-82
2023/05/13 05:09:13;;;;;;;4.28;2.67;;;;;;;;;;5031813;28;20048;-81
2023/05/13 05:11:39;;;;;;;4.55;2.97;;;;;;;;;;5038591;28;20041;-83
2023/05/13 05:14:05;;;;;;;5.15;2.90;;;;;;;;;;5031169;28;20030;-83
2023/05/13 05:16:31;;;;;;;3.33;2.17;;;;;;;;;;5020567;28;20036;-82
2023/05/13 05:18:58;;;;;;;4.68;2.00;;;;;;;;;;5027654;28;20694;-82
2023/05/13 05:21:24;;;;;;;2.33;1.25;;;;;;;;;;5019491;28;20128;-82
2023/05/13 05:23:50;;;;;;;2.42;1.52;;;;;;;;;;5019413;28;20067;-81
2023/05/13 05:26:17;;;;;;;2.50;1.45;;;;;;;;;;5019670;28;20481;-81
2023/05/13 05:28:43;;;;;;;2.10;1.48;;;;;;;;;;5020238;28;20026;-83
2023/05/13 05:31:09;;;;;;;2.13;1.73;;;;;;;;;;5019772;28;20068;-83
2023/05/13 05:33:35;;;;;;;3.78;1.40;;;;;;;;;;5022143;28;20101;-80
2023/05/13 05:36:01;;;;;;;2.88;2.08;;;;;;;;;;5026447;28;20025;-81
2023/05/13 05:38:28;;;;;;;2.83;1.70;;;;;;;;;;5024118;28;21050;-81
2023/05/13 05:40:54;;;;;;;2.58;1.27;;;;;;;;;;5031042;28;20682;-80
2023/05/13 05:43:20;;;;;;;2.08;1.33;;;;;;;;;;5027337;28;20440;-80
2023/05/13 05:45:46;;;;;;;2.30;1.30;;;;;;;;;;5019822;28;20064;-79
2023/05/13 05:48:12;;;;;;;2.17;1.48;;;;;;;;;;5022566;28;20065;-80
2023/05/13 05:50:38;;;;;;;2.92;1.92;;;;;;;;;;5017928;28;20747;-80
2023/05/13 05:53:05;;;;;;;6.20;1.42;;;;;;;;;;5018489;28;20167;-82
2023/05/13 05:55:31;;;;;;;3.42;2.15;;;;;;;;;;5019728;28;20046;-81
2023/05/13 05:58:02;;;;;;;3.00;1.50;;;11.00;99.90;;;;;;5020292;28;20053;-83
2023/05/13 06:00:28;;;;;;;2.17;1.40;;;;;;;;;;5016920;28;20037;-83
2023/05/13 06:02:55;;;;;;;2.95;1.42;;;;;;;;;;5018250;28;20090;-82
2023/05/13 06:05:21;;;;;;;2.83;1.55;;;;;;;;;;5018037;28;20026;-81
2023/05/13 06:07:47;;;;;;;2.65;1.58;;;;;;;;;;5010539;28;20033;-83
2023/05/13 06:10:13;;;;;;;4.85;1.92;;;;;;;;;;5018579;28;20096;-83
2023/05/13 06:12:40;;;;;;;2.78;1.50;;;;;;;;;;5021204;28;20061;-80
2023/05/13 06:15:09;;;;;;;3.40;1.50;;;;;;;;;;5022656;28;20074;-80
2023/05/13 06:17:35;;;;;;;2.90;1.27;;;;;;;;;;5014456;28;20132;-80
2023/05/13 06:20:01;;;;;;;3.10;1.95;;;;;;;;;;5015499;28;20025;-80
2023/05/13 06:22:27;;;;;;;3.65;2.08;;;;;;;;;;5012624;28;20386;-80
2023/05/13 06:24:53;;;;;;;3.00;1.83;;;;;;;;;;5029115;28;20120;-81
2023/05/13 06:27:19;;;;;;;3.90;2.00;;;;;;;;;;5020815;28;20041;-81
2023/05/13 06:29:45;;;;;;;2.38;1.88;;;;;;;;;;5022879;28;20752;-81
2023/05/13 06:32:11;;;;;;;1.65;1.05;;;;;;;;;;5016865;28;20461;-84
2023/05/13 06:34:38;;;;;;;2.40;1.27;;;;;;;;;;5021793;28;20017;-83
2023/05/13 06:37:05;;;;;;;2.83;1.63;;;;;;;;;;5018461;28;20028;-81
2023/05/13 06:39:31;;;;;;;3.08;1.92;;;;;;;;;;5024692;28;20069;-81
2023/05/13 06:41:56;;;;;;;2.22;1.33;;;14.70;99.90;;;;;;5026780;28;20044;-80
2023/05/13 06:44:22;;;;;;;8.48;1.60;;;;;;;;;;5008486;28;20057;-80
2023/05/13 06:46:48;;;;;;;3.67;1.60;;;;;;;;;;5020615;28;20105;-81
2023/05/13 06:49:15;;;;;;;3.25;1.70;;;;;;;;;;5014062;28;20592;-81
2023/05/13 06:51:41;;;;;;;1.63;1.00;;;;;;;;;;5013088;28;20029;-81
2023/05/13 06:54:08;;;;;;;2.47;1.20;;;;;;;;;;5025000;28;20026;-82
2023/05/13 06:56:34;;;;;;;3.47;1.65;;;;;;;;;;5017719;28;20033;-83
2023/05/13 06:59:00;;;;;;;4.85;1.60;;;;;;;;;;5014477;28;20038;-82
2023/05/13 07:01:26;;;;;;;2.35;1.35;;;;;;;;;;5015559;28;20025;-85
2023/05/13 07:03:52;;;;;;;3.08;1.30;;;;;;;;;;5019984;28;20548;-84
2023/05/13 07:06:18;;;;;;;3.67;1.67;;;;;;;;;;5026470;28;20046;-81
2023/05/13 07:08:45;;;;;;;1.42;0.82;;;;;;;;;;5016608;28;20059;-81
2023/05/13 07:11:11;;;;;;;2.78;1.35;;;;;;;;;;5022401;28;20029;-84
2023/05/13 07:13:37;;;;;;;7.63;1.75;;;;;;;;;;5023819;28;20038;-82
2023/05/13 07:16:03;;;;;;;3.40;1.50;;;;;;;;;;5004009;28;20135;-82
2023/05/13 07:18:29;;;;;;;2.47;1.30;;;;;;;;;;5034294;28;20022;-82
2023/05/13 07:20:55;;;;;;;4.25;1.10;;;;;;;;;;5013445;28;20060;-83
2023/05/13 07:23:24;;;;;;;3.38;1.50;;;;;;;;;;5022173;28;20071;-80
2023/05/13 07:25:51;;;;;;;5.03;1.17;;;;;;;;;;5016019;28;20021;-82
2023/05/13 07:28:20;;;;;;;4.80;1.38;;;;;;;;;;5005842;28;20577;-79
2023/05/13 07:30:46;;;;;;;2.42;1.15;;;;;;;;;;5010954;28;20033;-80
2023/05/13 07:33:12;;;;;;;1.58;0.90;;;;;;;;;;5028133;28;20079;-80
2023/05/13 07:35:39;;;;;;;3.05;1.48;;;;;;;;;;5024389;28;20439;-82
2023/05/13 07:38:07;;;;;;;2.05;1.45;;;17.40;99.90;;;;;;5021893;28;20025;-81
2023/05/13 07:40:33;;;;;;;3.90;1.52;;;;;;;;;;5028367;28;20037;-81
2023/05/13 07:43:00;;;;;;;2.63;1.50;;;;;;;;;;5026568;28;20485;-81
2023/05/13 07:45:26;;;;;;;1.30;0.85;;;;;;;;;;5029037;28;20120;-80
2023/05/13 07:47:52;;;;;;;2.67;1.60;;;;;;;;;;5025214;28;20033;-81
2023/05/13 07:50:18;;;;;;;1.98;1.27;;;;;;;;;;5024455;28;20029;-81
2023/05/13 07:52:47;;;;;;;1.73;1.17;;;;;;;;;;5025159;28;20025;-81
2023/05/13 07:55:15;;;;;;;1.98;1.35;;;;;;;;;;5028629;28;20111;-81
2023/05/13 07:57:41;;;;;;;3.45;1.52;;;;;;;;;;5029753;28;20029;-81
2023/05/13 08:00:08;;;;;;;3.80;1.25;;;;;;;;;;5020410;28;20093;-81
2023/05/13 08:02:34;;;;;;;1.73;1.25;;;;;;;;;;5010240;28;20041;-81
2023/05/13 08:05:00;;;;;;;5.15;1.65;;;15.40;99.90;;;;;;5004676;28;20032;-82
2023/05/13 08:07:26;;;;;;;3.90;1.63;;;;;;;;;;5030648;28;20381;-82
2023/05/13 08:09:52;;;;;;;3.63;1.60;;;18.70;99.90;;;;;;5032059;28;20025;-81
2023/05/13 08:12:18;;;;;;;2.40;1.35;;;;;;;;;;5019280;28;20512;-82
2023/05/13 08:14:44;;;;;;;2.72;1.25;;;;;;;;;;5029795;28;20095;-81
2023/05/13 08:17:10;;;;;;;3.40;1.15;;;18.20;99.90;;;;;;5030753;28;20021;-82
2023/05/13 08:19:36;;;;;;;2.97;1.15;;;;;;;;;;5026251;28;20571;-82
2023/05/13 08:22:02;;;;;;;2.40;1.52;;;;;;;;;;5020760;28;20430;-82
2023/05/13 08:24:28;;;;;;;3.25;1.75;;;;;;;;;;5026349;28;20057;-81
2023/05/13 08:26:53;;;;;;;3.08;1.33;;;;;;;;;;5033204;28;20394;-82
2023/05/13 08:29:19;;;;;;;2.60;1.55;;;;;;;;;;5021346;28;20393;-82
2023/05/13 08:31:46;;;;;;;1.60;0.90;;;;;;;;;;5029347;28;20029;-83
2023/05/13 08:34:12;;;;;;;3.78;1.83;;;;;;;;;;5024846;28;20472;-82
2023/05/13 08:36:38;;;;;;;3.20;1.23;;;;;;;;;;5028607;28;20041;-82
2023/05/13 08:39:04;;;;;;;2.92;1.73;;;;;;;;;;5032343;28;20033;-81
2023/05/13 08:41:32;;;;;;;3.75;1.30;;;;;;;;;;5030057;28;20025;-84
2023/05/13 08:43:59;;;;;;;4.25;1.75;;;;;;;;;;5029228;28;20093;-83
2023/05/13 08:46:26;;;;;;;2.22;0.85;;;19.00;99.90;;;;;;5023474;28;20030;-82
2023/05/13 08:48:54;;;;;;;2.53;1.45;;;18.10;99.90;;;;;;5023226;28;20107;-81
2023/05/13 08:51:20;;;;;;;2.17;1.40;;;;;;;;;;5025956;28;20484;-83
2023/05/13 08:53:47;;;;;;;2.72;1.35;;;19.10;99.90;;;;;;5022051;28;20044;-81
2023/05/13 08:56:13;;;;;;;2.70;1.08;;;;;;;;;;5028276;28;20092;-82
2023/05/13 08:58:38;;;;;;;4.78;1.98;;;19.10;99.90;;;;;;5027210;28;20458;-80
2023/05/13 09:01:08;;;;;;;3.53;1.88;;;19.50;99.90;;;;;;5028526;28;20051;-82
2023/05/13 09:03:35;;;;;;;3.17;1.85;;;;;;;;;;5028129;28;20029;-83
2023/05/13 09:06:01;;;;;;;4.65;1.98;;;;;;;;;;5029791;28;20026;-82
2023/05/13 09:08:27;;;;;;;6.28;1.20;;;;;;;;;;5032241;28;20033;-81
2023/05/13 09:10:53;;;;;;;2.45;1.42;;;;;;;;;;5028328;28;20033;-82
2023/05/13 09:13:19;;;;;;;2.95;1.83;;;;;;;;;;5011533;28;20041;-82
2023/05/13 09:15:45;;;;;;;1.50;0.82;;;;;;;;;;5024501;28;20033;-82
2023/05/13 09:18:12;;;;;;;1.85;1.23;;;;;;;;;;5025232;28;20021;-83
2023/05/13 09:20:38;;;;;;;2.28;1.30;;;17.50;99.90;;;;;;5030225;28;20573;-81
2023/05/13 09:23:09;;;;;;;2.22;1.23;;;18.00;99.90;;;;;;5032087;28;20065;-82
2023/05/13 09:25:36;;;;;;;2.95;1.55;;;;;;;;;;5035533;28;20088;-82
2023/05/13 09:28:03;;;;;;;2.55;1.88;;;;;;;;;;5024584;28;20041;-83
2023/05/13 09:30:34;;;;;;;4.00;1.45;;;17.70;99.90;;;;;;5021992;28;20022;-82
2023/05/13 09:33:08;;;;;;;1.65;1.13;;;;;;;;;;5027766;28;20033;-82
2023/05/13 09:35:35;;;;;;;1.80;1.10;;;;;;;;;;5029538;28;20128;-82
2023/05/13 09:38:02;;;;;;;3.42;1.63;;;;;;;;;;5031532;28;20057;-83
2023/05/13 09:40:28;;;;;;;2.50;1.00;;;;;;;;;;5017413;28;20080;-82
2023/05/13 09:42:59;;;;;;;3.03;1.60;;;17.10;99.90;;;;;;5027689;28;20030;-81
2023/05/13 09:45:25;;;;;;;2.58;1.20;;;;;;;;;;5024202;28;20022;-82
2023/05/13 09:47:52;;;;;;;3.72;2.03;;;;;;;;;;5025866;28;20116;-81
2023/05/13 09:50:18;;;;;;;5.95;1.30;;;16.70;99.90;;;;;;5031395;28;20123;-82
2023/05/13 09:52:44;;;;;;;3.13;1.27;;;16.90;99.90;;;;;;5028674;28;20685;-81
2023/05/13 09:55:10;;;;;;;1.90;1.20;;;;;;;;;;5023252;28;20037;-82
2023/05/13 09:57:36;;;;;;;2.95;0.70;;;;;;;;;;5024620;28;20029;-81
2023/05/13 10:00:07;;;;;;;4.93;1.33;;;16.60;99.90;;;;;;5032263;28;20477;-81
2023/05/13 10:02:33;;;;;;;3.88;2.00;;;;;;;;;;5028200;28;20093;-81
2023/05/13 10:04:59;;;;;;;2.47;1.20;;;;;;;;;;5029030;28;20044;-84
2023/05/13 10:07:27;;;;;;;2.85;1.50;;;;;;;;;;5024971;28;20057;-81
2023/05/13 10:09:53;;;;;;;1.67;0.90;;;;;;;;;;5026955;28;20121;-82
2023/05/13 10:12:23;;;;;;;2.60;1.13;;;17.00;99.90;;;;;;5031935;28;20060;-83
2023/05/13 10:14:52;;;;;;;2.58;1.13;;;17.40;99.90;;;;;;5029072;28;20064;-82
2023/05/13 10:17:20;;;;;;;1.92;0.95;;;17.60;99.90;;;;;;5026561;28;20113;-82
2023/05/13 10:19:50;;;;;;;0.50;0.40;;;17.70;99.90;;;;;;5034424;28;20045;-82
2023/05/13 10:22:20;;;;;;;1.67;0.73;;;;;;;;;;5032778;28;20037;-82
2023/05/13 10:24:47;;;;;;;3.03;0.60;;;;;;;;;;5026926;28;20534;-82
2023/05/13 10:27:13;;;;;;;1.25;0.55;;;;;;;;;;5027901;28;20116;-81
2023/05/13 10:29:41;;;;;;;0.70;0.47;;;18.30;99.90;;;;;;5032882;28;20029;-82
2023/05/13 10:32:07;;;;;;;12.32;0.98;;;;;;;;;;5024300;28;20120;-82
2023/05/13 10:34:35;;;;;;;1.88;0.63;;;18.40;99.90;;;;;;5030268;28;20029;-82
2023/05/13 10:37:22;;;;;;;1.33;0.82;;;18.70;99.90;;;;;;5031462;28;20119;-82
2023/05/13 10:39:51;;;;;;;3.85;0.75;;;;;;;;;;5031653;28;20059;-81
2023/05/13 10:42:37;;;;;;;1.80;0.98;;;;;;;;;;5032806;28;20040;-81
2023/05/13 10:45:03;;;;;;;1.30;0.60;;;;;;;;;;5033196;28;20103;-81
2023/05/13 10:47:32;;;;;;;0.85;0.60;;;;;;;;;;5020755;28;20436;-81
2023/05/13 10:50:03;;;;;;;3.03;0.57;;;;;;;;;;5034312;28;20033;-82
2023/05/13 10:52:46;;;;;;;1.80;0.65;;;18.20;98.70;;;;;;5034070;28;20125;-81
2023/05/13 10:55:17;;;;;;;10.93;4.20;;;;;;;;;;5029384;28;20115;-80
2023/05/13 10:58:03;;;;;;;4.90;1.92;;;18.00;99.90;;;;;;5027903;28;20041;-83
2023/05/13 11:00:33;;;;;;;1.65;0.73;;;18.60;99.50;;;;;;5027457;28;20021;-80
2023/05/13 11:03:12;;;;;;;1.15;0.70;;;18.10;99.90;;;;;;5028587;28;20017;-81
2023/05/13 11:05:39;;;;;;;1.63;0.57;;;;;;;;;;5023375;28;20108;-81
2023/05/13 11:08:05;;;;;;;3.60;1.85;;;;;;;;;;5031416;28;20024;-82
2023/05/13 11:10:31;;;;;;;2.38;0.70;;;;;;;;;;5026370;28;20387;-81
2023/05/13 11:13:21;;;;;;;2.97;1.25;;;18.20;99.90;;;;;;5028523;28;20029;-82
2023/05/13 11:15:49;;;;;;;1.40;0.77;;;;;;;;;;5031081;28;20525;-80
2023/05/13 11:18:15;;;;;;;0.98;0.50;;;;;;;;;;5029128;28;20022;-82
2023/05/13 11:20:46;;;;;;;1.85;0.73;;;18.20;99.90;;;;;;5031036;28;20239;-81
2023/05/13 11:23:19;;;;;;;1.70;0.80;;;18.10;99.90;;;;;;5032685;28;20022;-82
2023/05/13 11:25:45;;;;;;;1.70;0.50;;;;;;;;;;5028012;28;20025;-80
2023/05/13 11:28:17;;;;;;;1.98;1.08;;;;;;;;;;5034197;28;20024;-82
2023/05/13 11:30:56;;;;;;;1.17;0.80;;;18.80;99.90;;;;;;5025850;28;20021;-81
2023/05/13 11:33:22;;;;;;;1.60;0.77;;;;;;;;;;5030678;28;20288;-82
2023/05/13 11:35:55;;;;;;;1.90;0.90;;;17.30;99.90;;;;;;5032605;28;20033;-81
2023/05/13 11:38:23;;;;;;;1.40;0.50;;;17.60;99.90;;;;;;5026701;28;20041;-81
2023/05/13 11:40:49;;;;;;;2.20;1.10;;;;;;;;;;5012140;28;20228;-82
2023/05/13 11:43:21;;;;;;;1.55;0.70;;;;;;;;;;5031154;28;20025;-81
2023/05/13 11:45:47;;;;;;;1.60;0.70;;;;;;;;;;5025242;28;20075;-82
2023/05/13 11:48:24;;;;;;;2.28;1.00;;;;;;;;;;5029418;28;20687;-82
2023/05/13 11:50:50;;;;;;;1.42;0.80;;;;;;;;;;5032462;28;20033;-82
2023/05/13 11:53:21;;;;;;;2.38;1.08;;;18.40;99.90;;;;;;5032061;28;20033;-82
2023/05/13 11:55:47;;;;;;;1.95;0.65;;;;;;;;;;5030674;28;20049;-81
2023/05/13 11:58:16;;;;;;;1.63;0.80;;;;;;;;;;5026265;28;20099;-81
2023/05/13 12:00:43;;;;;;;1.40;0.75;;;;;;;;;;5029575;28;20025;-81
2023/05/13 12:03:11;;;;;;;2.25;0.90;;;19.20;99.90;;;;;;5028158;28;20092;-82
2023/05/13 12:05:37;;;;;;;1.17;0.68;;;;;;;;;;5032809;28;20029;-80
2023/05/13 12:08:03;;;;;;;1.25;0.70;;;;;;;;;;5027573;28;20323;-82
2023/05/13 12:10:29;;;;;;;1.15;0.73;;;;;;;;;;5027462;28;20025;-80
2023/05/13 12:12:55;;;;;;;1.10;0.60;;;;;;;;;;5031469;28;20090;-82
2023/05/13 12:15:21;;;;;;;1.67;0.73;;;;;;;;;;5032336;28;20037;-81
2023/05/13 12:17:48;;;;;;;3.15;0.60;;;;;;;;;;5021828;28;20026;-81
2023/05/13 12:20:15;;;;;;;0.95;0.60;;;;;;;;;;5026473;28;20033;-82
2023/05/13 12:22:43;;;;;;;1.40;0.70;;;19.90;97.90;;;;;;5031109;28;20104;-81
2023/05/13 12:25:38;;;;;;;0.75;0.40;;;19.30;97.30;;;;;;5023680;28;20405;-81
2023/05/13 12:28:17;;;;;;;1.17;0.63;;;;;;;;;;5027786;28;20017;-82
2023/05/13 12:30:50;;;;;;;0.77;0.60;;;19.50;96.60;;;;;;5026125;28;20029;-81
2023/05/13 12:33:17;;;;;;;0.70;0.50;;;19.60;99.40;;;;;;5027576;28;20120;-82
2023/05/13 12:35:44;;;;;;;2.22;0.88;;;;;;;;;;5031735;28;20033;-82
2023/05/13 12:38:16;;;;;;;1.10;0.63;;;19.40;99.10;;;;;;5025334;28;20437;-82
2023/05/13 12:40:42;;;;;;;1.00;0.40;;;;;;;;;;5023233;28;20040;-81
2023/05/13 12:43:08;;;;;;;1.48;0.50;;;;;;;;;;5028089;28;20521;-82
2023/05/13 12:45:34;;;;;;;1.63;0.73;;;;;;;;;;5023496;28;20022;-80
2023/05/13 12:48:00;;;;;;;1.38;0.50;;;19.90;97.40;;;;;;5028187;28;20033;-82
2023/05/13 12:50:26;;;;;;;1.42;0.68;;;;;;;;;;5026680;28;20485;-82
2023/05/13 12:52:53;;;;;;;0.95;0.65;;;;;;;;;;5024834;28;20034;-81
2023/05/13 12:55:19;;;;;;;1.33;0.63;;;;;;;;;;5024608;28;20025;-80
2023/05/13 12:57:54;;;;;;;2.67;0.98;;;;;;;;;;5024212;28;20049;-81
2023/05/13 13:00:19;;;;;;;1.98;0.57;;;19.60;99.30;;;;;;5025674;28;20025;-81
2023/05/13 13:02:45;;;;;;;1.30;0.80;;;;;;;;;;5021824;28;20021;-82
2023/05/13 13:05:11;;;;;;;0.88;0.52;;;;;;;;;;5026086;28;20059;-82
2023/05/13 13:07:38;;;;;;;1.17;0.77;;;;;;;;;;5030244;28;20045;-81
2023/05/13 13:10:05;;;;;;;1.35;0.50;;;19.70;98.60;;;;;;5029413;28;20033;-81
2023/05/13 13:12:31;;;;;;;0.82;0.60;;;;;;;;;;5018720;28;20072;-81
2023/05/13 13:14:57;;;;;;;0.75;0.50;;;;;;;;;;5029116;28;20076;-81
2023/05/13 13:17:23;;;;;;;1.50;0.80;;;;;;;;;;5022975;28;20032;-81
2023/05/13 13:19:49;;;;;;;1.38;0.70;;;;;;;;;;5028832;28;20490;-80
2023/05/13 13:22:15;;;;;;;1.40;0.60;;;;;;;;;;5027239;28;20433;-80
2023/05/13 13:24:41;;;;;;;1.38;0.65;;;;;;;;;;5019038;28;20029;-81
2023/05/13 13:27:06;;;;;;;1.02;0.68;;;19.60;99.90;;;;;;5022212;28;20460;-81
2023/05/13 13:29:32;;;;;;;2.80;0.82;;;;;;;;;;5022502;28;20042;-81
2023/05/13 13:31:58;;;;;;;2.05;0.70;;;19.40;99.90;;;;;;5025911;28;20030;-81
2023/05/13 13:34:24;;;;;;;5.75;0.65;;;;;;;;;;5029284;28;20482;-81
2023/05/13 13:36:50;;;;;;;4.03;0.85;;;;;;;;;;5032808;28;20545;-81
2023/05/13 13:39:16;;;;;;;1.83;0.80;;;;;;;;;;5028380;28;20433;-80
2023/05/13 13:41:42;;;;;;;0.70;0.45;;;;;;;;;;5023836;28;20038;-81
2023/05/13 13:44:08;;;;;;;1.23;0.52;;;;;;;;;;5028056;28;20029;-80
2023/05/13 13:46:34;;;;;;;1.25;0.70;;;;;;;;;;5023571;28;20025;-81
2023/05/13 13:49:00;;;;;;;2.75;0.70;;;;;;;;;;5026542;28;20575;-82
2023/05/13 13:51:25;;;;;;;1.65;0.60;;;;;;;;;;5028926;28;20034;-81
2023/05/13 13:53:51;;;;;;;1.13;0.60;;;;;;;;;;5023926;28;20037;-81
2023/05/13 13:56:18;;;;;;;1.88;0.75;;;;;;;;;;5029582;28;20034;-81
2023/05/13 13:58:44;;;;;;;1.65;0.63;;;;;;;;;;5025224;28;20428;-81
2023/05/13 14:01:10;;;;;;;1.17;0.65;;;;;;;;;;5026151;28;20040;-81
2023/05/13 14:03:37;;;;;;;2.08;0.88;;;18.90;98.00;;;;;;5031708;28;20029;-81
2023/05/13 14:06:03;;;;;;;1.08;0.55;;;;;;;;;;5030002;28;20486;-81
2023/05/13 14:08:29;;;;;;;1.48;0.80;;;;;;;;;;5032156;28;20029;-82
2023/05/13 14:10:56;;;;;;;1.05;0.40;;;;;;;;;;5043872;28;20072;-82
2023/05/13 14:13:22;;;;;;;8.65;0.65;;;;;;;;;;5028931;28;20026;-83
2023/05/13 14:15:48;;;;;;;1.75;0.85;;;19.20;99.90;;;;;;5029250;28;20034;-81
2023/05/13 14:18:14;;;;;;;1.70;0.85;;;;;;;;;;5031488;28;20041;-82
2023/05/13 14:20:40;;;;;;;1.38;0.70;;;;;;;;;;5034456;28;20037;-81
2023/05/13 14:23:06;;;;;;;1.30;0.70;;;;;;;;;;5032806;28;20032;-82